Time;durP1;ratioP1;P1;durP2;ratioP2;P2;SDS_P1;SDS_P2;PMS_P1;PMS_P2;Temp;Humidity;BMP_temperature;BMP_pressure;BME280_temperature;BME280_humidity;BME280_pressure;Samples;Min_cycle;Max_cycle;Signal;HPM_P1;HPM_P2
2023/08/16 00:00:19;;;;;;;10.83;9.67;;;20.40;99.90;;;20.14;83.18;101231.47;5054078;28;20690;-73
2023/08/16 00:02:50;;;;;;;13.77;9.80;;;20.30;99.90;;;20.07;83.64;101238.78;5053976;28;20791;-73
2023/08/16 00:05:24;;;;;;;14.37;9.23;;;20.20;99.90;;;20.01;83.55;101229.63;5053904;28;20699;-73
2023/08/16 00:07:56;;;;;;;16.50;10.47;;;20.10;99.90;;;20.01;83.78;101235.06;5054347;28;20273;-73
2023/08/16 00:10:28;;;;;;;12.27;10.13;;;20.10;99.90;;;19.98;83.45;101234.63;5054265;28;20281;-73
2023/08/16 00:13:00;;;;;;;9.93;8.90;;;20.10;99.90;;;20.01;84.16;101223.34;5054115;28;20323;-72
2023/08/16 00:15:32;;;;;;;15.07;10.23;;;20.10;99.90;;;19.95;84.70;101225.03;5054188;28;20278;-72
2023/08/16 00:18:04;;;;;;;10.80;8.97;;;20.10;99.90;;;19.93;84.70;101231.72;5054093;28;20198;-72
2023/08/16 00:20:38;;;;;;;14.00;8.70;;;20.10;99.90;;;19.93;84.21;101237.16;5054090;28;20230;-73
2023/08/16 00:23:10;;;;;;;10.97;8.60;;;20.00;99.90;;;19.91;84.87;101237.34;5053659;28;20226;-73
2023/08/16 00:25:42;;;;;;;13.60;8.83;;;20.00;99.90;;;19.87;84.05;101240.69;5053867;28;20301;-73
2023/08/16 00:28:14;;;;;;;10.67;8.60;;;20.00;99.90;;;19.83;84.28;101240.28;5053644;28;20731;-73
2023/08/16 00:30:46;;;;;;;13.37;9.80;;;19.90;99.90;;;19.78;83.13;101231.09;5053902;28;20190;-73
2023/08/16 00:33:18;;;;;;;12.53;9.13;;;19.90;99.90;;;19.74;83.59;101236.94;5054223;28;20230;-72
2023/08/16 00:35:52;;;;;;;12.87;9.40;;;19.90;99.90;;;19.69;84.93;101235.91;5053854;28;20214;-73
2023/08/16 00:38:24;;;;;;;16.77;9.10;;;19.80;99.90;;;19.70;84.67;101238.38;5053755;28;20212;-72
2023/08/16 00:40:57;;;;;;;11.17;9.07;;;19.80;99.90;;;19.73;84.23;101243.41;5053742;28;20196;-72
2023/08/16 00:43:29;;;;;;;12.13;9.13;;;19.80;99.90;;;19.71;83.88;101236.50;5052983;28;20226;-73
2023/08/16 00:46:03;;;;;;;11.33;9.10;;;19.80;99.90;;;19.71;83.83;101233.78;5053487;28;20260;-73
2023/08/16 00:48:37;;;;;;;11.73;9.57;;;19.80;99.90;;;19.67;84.95;101236.09;5053599;28;20185;-73
2023/08/16 00:51:12;;;;;;;10.60;9.43;;;19.80;99.90;;;19.63;84.08;101228.56;5053580;28;20197;-72
2023/08/16 00:53:46;;;;;;;12.03;8.53;;;19.80;99.90;;;19.60;85.21;101232.53;5053173;28;20639;-72
2023/08/16 00:56:20;;;;;;;11.30;8.90;;;19.70;99.90;;;19.62;84.41;101241.28;5053540;28;20189;-72
2023/08/16 00:58:52;;;;;;;10.83;9.27;;;19.80;99.90;;;19.58;84.95;101229.19;5053531;28;20277;-72
2023/08/16 01:01:24;;;;;;;11.23;9.60;;;19.80;99.90;;;19.52;85.96;101240.88;5053444;28;20237;-72
2023/08/16 01:03:57;;;;;;;11.23;9.43;;;19.60;99.90;;;19.48;85.06;101250.50;5053367;28;20236;-73
2023/08/16 01:06:31;;;;;;;11.70;10.23;;;19.60;99.90;;;19.45;86.26;101240.00;5053333;28;20236;-73
2023/08/16 01:09:03;;;;;;;14.07;10.53;;;19.50;99.90;;;19.43;86.57;101241.28;5053401;28;20190;-73
2023/08/16 01:11:45;;;;;;;11.73;10.53;;;19.50;99.90;;;19.37;86.81;101228.50;5053032;28;20710;-73
2023/08/16 01:14:31;;;;;;;12.10;10.83;;;19.50;99.90;;;19.39;86.55;101235.38;5053271;28;20317;-73
2023/08/16 01:17:03;;;;;;;11.57;10.37;;;19.50;99.90;;;19.39;85.79;101240.81;5053011;28;20183;-73
2023/08/16 01:19:38;;;;;;;10.73;9.63;;;19.50;99.90;;;19.42;85.98;101237.72;5053293;28;20273;-73
2023/08/16 01:22:24;;;;;;;11.40;10.10;;;19.60;99.90;;;19.38;85.95;101224.75;5053012;28;20285;-72
2023/08/16 01:25:11;;;;;;;11.97;10.53;;;19.50;99.90;;;19.43;85.93;101233.97;5053973;28;20190;-72
2023/08/16 01:27:47;;;;;;;12.57;9.93;;;19.60;99.90;;;19.42;86.61;101239.63;5052908;28;20279;-72
2023/08/16 01:30:20;;;;;;;12.20;10.33;;;19.50;99.90;;;19.32;86.82;101239.13;5053248;28;20289;-72
2023/08/16 01:32:53;;;;;;;12.67;10.73;;;19.50;99.90;;;19.32;86.72;101239.97;5053302;28;20325;-73
2023/08/16 01:35:25;;;;;;;11.77;10.57;;;19.50;99.90;;;19.25;86.85;101247.25;5053119;28;20285;-73
2023/08/16 01:37:57;;;;;;;10.77;9.17;;;19.40;99.90;;;19.27;86.61;101250.63;5053128;28;20281;-73
2023/08/16 01:40:31;;;;;;;12.33;10.77;;;19.40;99.90;;;19.24;86.97;101253.75;5053042;28;20241;-72
2023/08/16 01:43:10;;;;;;;11.10;10.00;;;19.40;99.90;;;19.25;86.49;101249.97;5052703;28;20669;-72
2023/08/16 01:45:42;;;;;;;10.30;9.20;;;19.40;99.90;;;19.24;86.16;101259.16;5053052;28;20216;-74
2023/08/16 01:48:15;;;;;;;10.20;9.10;;;19.40;99.90;;;19.25;85.99;101255.41;5052782;28;20236;-72
2023/08/16 01:50:47;;;;;;;11.27;9.63;;;19.40;99.90;;;19.27;85.68;101250.63;5053056;28;20281;-73
2023/08/16 01:53:20;;;;;;;10.40;9.30;;;19.50;99.90;;;19.20;85.25;101253.31;5053647;28;20312;-72
2023/08/16 01:55:52;;;;;;;13.67;10.40;;;19.50;99.90;;;19.10;86.73;101257.44;5056806;28;20229;-73
2023/08/16 01:58:25;;;;;;;11.03;9.90;;;19.30;99.90;;;19.16;87.25;101251.19;5056780;28;20233;-73
2023/08/16 02:00:58;;;;;;;13.30;9.50;;;19.30;99.90;;;19.17;86.51;101255.59;5056756;28;20259;-73
2023/08/16 02:03:31;;;;;;;10.40;9.30;;;19.40;99.90;;;19.15;86.12;101260.38;5056627;28;20222;-73
2023/08/16 02:06:03;;;;;;;10.57;9.33;;;19.30;99.90;;;19.07;85.98;101260.56;5056782;28;20207;-72
2023/08/16 02:08:36;;;;;;;11.17;9.20;;;19.30;99.90;;;19.08;86.18;101259.50;5056581;28;20218;-73
2023/08/16 02:11:08;;;;;;;10.13;8.70;;;19.20;99.90;;;19.07;86.24;101261.41;5056227;28;20190;-73
2023/08/16 02:13:41;;;;;;;10.43;9.37;;;19.30;99.90;;;18.99;86.33;101255.31;5056451;28;20261;-73
2023/08/16 02:16:13;;;;;;;10.93;9.20;;;19.20;99.90;;;19.02;87.51;101265.75;5056318;28;20198;-73
2023/08/16 02:18:45;;;;;;;9.63;8.63;;;19.20;99.90;;;18.98;86.74;101267.19;5056407;28;20226;-73
2023/08/16 02:21:17;;;;;;;10.83;8.70;;;19.10;99.90;;;18.92;87.22;101260.72;5056373;28;20225;-73
2023/08/16 02:23:49;;;;;;;10.47;8.90;;;19.10;99.90;;;18.91;86.83;101263.63;5056267;28;20226;-73
2023/08/16 02:26:22;;;;;;;9.47;8.13;;;19.00;99.90;;;18.89;87.07;101268.41;5056404;28;20214;-73
2023/08/16 02:28:55;;;;;;;10.37;9.27;;;19.00;99.90;;;18.78;87.29;101266.28;5056226;28;20222;-73
2023/08/16 02:31:27;;;;;;;9.83;8.80;;;18.90;99.90;;;18.71;87.22;101258.94;5056182;28;20269;-73
2023/08/16 02:33:59;;;;;;;11.07;8.43;;;18.90;99.90;;;18.73;87.31;101267.69;5056055;28;20262;-73
2023/08/16 02:36:31;;;;;;;12.40;8.60;;;18.90;99.90;;;18.73;87.19;101262.28;5056133;28;20191;-73
2023/08/16 02:39:05;;;;;;;11.50;8.20;;;18.90;99.90;;;18.73;87.42;101265.00;5055740;28;20213;-72
2023/08/16 02:41:37;;;;;;;11.33;8.40;;;18.90;99.90;;;18.65;87.91;101265.19;5055644;28;20279;-73
2023/08/16 02:44:10;;;;;;;11.63;8.20;;;18.80;99.90;;;18.61;87.52;101273.91;5055898;28;20254;-72
2023/08/16 02:46:42;;;;;;;8.57;7.67;;;18.70;99.90;;;18.62;87.48;101268.28;5055343;28;20747;-72
2023/08/16 02:49:14;;;;;;;9.33;7.60;;;18.80;99.90;;;18.64;87.28;101274.34;5055807;28;20190;-72
2023/08/16 02:51:46;;;;;;;9.63;8.30;;;18.90;99.90;;;18.58;87.91;101272.44;5055728;28;20191;-73
2023/08/16 02:54:19;;;;;;;10.30;8.07;;;18.70;99.90;;;18.49;87.64;101273.56;5055297;28;20316;-73
2023/08/16 02:56:51;;;;;;;9.37;7.47;;;18.60;99.90;;;18.56;87.51;101277.19;5055666;28;20210;-72
2023/08/16 02:59:25;;;;;;;9.70;7.80;;;18.70;99.90;;;18.52;85.75;101262.41;5055631;28;20234;-73
2023/08/16 03:01:57;;;;;;;9.97;6.83;;;18.80;99.90;;;18.56;86.43;101271.78;5055563;28;20270;-73
2023/08/16 03:04:29;;;;;;;8.60;7.50;;;18.80;99.90;;;18.58;86.47;101275.16;5055497;28;20226;-73
2023/08/16 03:07:01;;;;;;;10.10;7.53;;;18.80;99.90;;;18.48;86.99;101271.09;5055075;28;20264;-73
2023/08/16 03:09:33;;;;;;;11.07;6.80;;;18.60;99.90;;;18.46;86.56;101282.13;5055405;28;20269;-73
2023/08/16 03:12:06;;;;;;;10.00;7.37;;;18.60;99.90;;;18.48;86.00;101279.22;5055437;28;20202;-73
2023/08/16 03:14:39;;;;;;;9.87;7.27;;;18.70;99.90;;;18.43;86.49;101285.22;5055265;28;20272;-72
2023/08/16 03:17:11;;;;;;;7.80;7.00;;;18.60;99.90;;;18.47;86.58;101283.78;5055300;28;20190;-72
2023/08/16 03:19:43;;;;;;;11.70;8.00;;;18.60;99.90;;;18.42;86.67;101278.16;5055265;28;20263;-73
2023/08/16 03:22:15;;;;;;;8.43;6.97;;;18.60;99.90;;;18.40;86.05;101276.66;5055130;28;20193;-72
2023/08/16 03:24:47;;;;;;;7.93;6.13;;;18.60;99.90;;;18.44;86.44;101295.03;5055125;28;20190;-73
2023/08/16 03:27:19;;;;;;;8.10;6.63;;;18.60;99.90;;;18.36;87.16;101287.06;5055015;28;20211;-73
2023/08/16 03:29:52;;;;;;;9.93;6.60;;;18.50;99.90;;;18.37;87.24;101280.59;5055096;28;20273;-73
2023/08/16 03:32:24;;;;;;;9.23;6.97;;;18.60;99.90;;;18.37;86.25;101287.91;5054922;28;20289;-73
2023/08/16 03:34:57;;;;;;;11.33;6.67;;;18.60;99.90;;;18.41;86.40;101298.16;5054784;28;20648;-72
2023/08/16 03:37:31;;;;;;;8.27;6.70;;;18.60;99.90;;;18.32;86.61;101296.63;5055133;28;20222;-72
2023/08/16 03:40:05;;;;;;;10.40;6.10;;;18.50;99.90;;;18.30;86.53;101293.28;5054877;28;20194;-73
2023/08/16 03:42:37;;;;;;;8.47;6.80;;;18.50;99.90;;;18.24;86.07;101299.47;5054763;28;20225;-72
2023/08/16 03:45:12;;;;;;;10.73;6.97;;;18.60;99.90;;;18.23;86.63;101303.22;5054758;28;20281;-73
2023/08/16 03:47:46;;;;;;;11.13;6.57;;;18.40;99.90;;;18.22;86.79;101296.13;5054356;28;20327;-73
2023/08/16 03:50:18;;;;;;;8.03;6.57;;;18.40;99.90;;;18.20;86.86;101300.91;5054699;28;20190;-72
2023/08/16 03:52:51;;;;;;;9.20;6.30;;;18.40;99.90;;;18.16;87.30;101314.00;5054607;28;20316;-71
2023/08/16 03:55:23;;;;;;;9.03;6.63;;;18.40;99.90;;;18.07;87.92;101315.19;5054578;28;20619;-72
2023/08/16 03:57:55;;;;;;;11.57;6.57;;;18.20;99.90;;;18.05;88.08;101313.69;5054592;28;20186;-72
2023/08/16 04:00:28;;;;;;;8.10;6.43;;;18.20;99.90;;;18.00;88.12;101314.28;5054539;28;20592;-72
2023/08/16 04:03:00;;;;;;;9.73;6.87;;;18.20;99.90;;;17.98;87.69;101315.53;5054561;28;20316;-73
2023/08/16 04:05:33;;;;;;;8.67;6.40;;;18.20;99.90;;;17.97;88.98;101324.69;5056067;28;20648;-73
2023/08/16 04:08:05;;;;;;;8.20;6.13;;;18.20;99.90;;;17.96;88.88;101323.00;5055988;28;20259;-73
2023/08/16 04:10:37;;;;;;;8.63;6.57;;;18.20;99.90;;;17.85;88.61;101326.22;5056290;28;20195;-73
2023/08/16 04:13:09;;;;;;;8.90;6.40;;;18.00;99.90;;;17.91;88.51;101325.47;5059734;28;20293;-72
2023/08/16 04:15:43;;;;;;;8.87;6.20;;;18.10;99.90;;;17.91;88.31;101328.19;5061925;28;20221;-73
2023/08/16 04:18:14;;;;;;;8.47;6.00;;;18.20;99.90;;;17.92;88.78;101321.69;5057249;28;20273;-72
2023/08/16 04:20:46;;;;;;;9.37;6.30;;;18.10;99.90;;;17.89;88.64;101325.66;5054608;28;20232;-73
2023/08/16 04:23:18;;;;;;;8.83;6.20;;;18.10;99.90;;;17.88;88.75;101325.81;5054290;28;20257;-73
2023/08/16 04:25:50;;;;;;;9.33;6.00;;;18.20;99.90;;;17.91;87.65;101330.88;5054161;28;20186;-73
2023/08/16 04:28:22;;;;;;;8.93;6.27;;;18.10;99.90;;;17.89;88.30;101338.34;5053763;28;20753;-73
2023/08/16 04:30:55;;;;;;;9.43;6.47;;;18.10;99.90;;;17.90;88.19;101340.03;5054044;28;20244;-74
2023/08/16 04:33:27;;;;;;;6.90;6.20;;;18.10;99.90;;;17.90;88.01;101345.44;5053624;28;20276;-74
2023/08/16 04:36:00;;;;;;;7.07;5.80;;;18.10;99.90;;;17.92;88.19;101349.63;5053684;28;20195;-74
2023/08/16 04:38:32;;;;;;;8.00;6.43;;;18.10;99.90;;;17.95;88.04;101348.41;5053962;28;20277;-74
2023/08/16 04:41:04;;;;;;;6.93;5.83;;;18.20;99.90;;;17.93;88.21;101350.47;5054068;28;20237;-73
2023/08/16 04:43:36;;;;;;;7.13;5.97;;;18.10;99.90;;;17.89;87.76;101360.00;5054239;28;20232;-73
2023/08/16 04:46:09;;;;;;;7.17;5.47;;;18.10;99.90;;;17.88;88.99;101364.59;5053577;28;20190;-73
2023/08/16 04:48:41;;;;;;;8.07;6.17;;;18.10;99.90;;;17.86;88.72;101363.13;5053683;28;20301;-73
2023/08/16 04:51:13;;;;;;;9.20;5.90;;;18.00;99.90;;;17.84;89.35;101368.75;5053685;28;20230;-73
2023/08/16 04:53:45;;;;;;;8.80;5.93;;;18.00;99.90;;;17.85;88.70;101369.56;5053591;28;20247;-73
2023/08/16 04:56:17;;;;;;;8.10;6.77;;;18.10;99.90;;;17.76;88.41;101365.31;5053618;28;20273;-73
2023/08/16 04:58:49;;;;;;;8.70;6.07;;;18.00;99.90;;;17.80;88.42;101358.47;5053545;28;20222;-73
2023/08/16 05:01:23;;;;;;;9.30;6.13;;;18.10;99.90;;;17.80;89.02;101366.59;5053558;28;20263;-73
2023/08/16 05:03:55;;;;;;;8.90;6.03;;;18.00;99.90;;;17.77;88.72;101361.56;5054127;28;20718;-73
2023/08/16 05:06:27;;;;;;;6.60;5.90;;;18.00;99.90;;;17.76;89.85;101366.16;5053496;28;20190;-73
2023/08/16 05:08:59;;;;;;;9.23;5.97;;;18.00;99.90;;;17.78;89.14;101363.22;5053404;28;20547;-73
2023/08/16 05:11:31;;;;;;;7.17;6.47;;;18.00;99.90;;;17.75;89.57;101375.28;5053413;28;20277;-74
2023/08/16 05:14:03;;;;;;;8.33;6.50;;;18.00;99.90;;;17.73;89.09;101367.38;5053076;28;20264;-74
2023/08/16 05:16:36;;;;;;;8.40;6.37;;;18.00;99.90;;;17.69;90.05;101368.78;5053311;28;20194;-74
2023/08/16 05:19:08;;;;;;;6.50;5.90;;;17.90;99.90;;;17.70;89.84;101367.75;5053028;28;20637;-74
2023/08/16 05:21:40;;;;;;;7.00;6.03;;;17.90;99.90;;;17.71;90.19;101382.97;5053033;28;20600;-74
2023/08/16 05:24:12;;;;;;;7.90;6.27;;;18.00;99.90;;;17.78;90.11;101384.91;5053183;28;20280;-74
2023/08/16 05:26:44;;;;;;;7.37;6.53;;;18.00;99.90;;;17.69;89.60;101387.75;5053251;28;20213;-74
2023/08/16 05:29:15;;;;;;;8.30;6.10;;;18.00;99.90;;;17.72;90.78;101403.59;5055564;28;20214;-74
2023/08/16 05:31:49;;;;;;;11.60;6.30;;;18.00;99.90;;;17.73;90.51;101404.44;5057350;28;20288;-74
2023/08/16 05:34:22;;;;;;;10.63;6.07;;;18.00;99.90;;;17.74;90.91;101406.94;5057178;28;20236;-73
2023/08/16 05:36:55;;;;;;;8.83;6.30;;;18.00;99.90;;;17.77;91.67;101421.16;5057270;28;20214;-73
2023/08/16 05:39:27;;;;;;;8.23;5.87;;;18.10;99.90;;;17.74;91.49;101419.66;5057325;28;20277;-73
2023/08/16 05:41:59;;;;;;;7.20;5.53;;;18.00;99.90;;;17.76;91.87;101420.31;5057134;28;20670;-73
2023/08/16 05:44:31;;;;;;;9.70;6.37;;;18.00;99.90;;;17.75;91.80;101415.91;5056960;28;20647;-73
2023/08/16 05:47:04;;;;;;;8.07;6.23;;;18.00;99.90;;;17.75;91.94;101415.91;5056887;28;20220;-73
2023/08/16 05:49:36;;;;;;;7.40;5.93;;;18.10;99.90;;;17.72;92.11;101411.72;5056961;28;20218;-72
2023/08/16 05:52:08;;;;;;;8.23;5.97;;;18.00;99.90;;;17.66;91.54;101408.94;5057031;28;20239;-73
2023/08/16 05:54:40;;;;;;;6.83;6.10;;;18.00;99.90;;;17.68;92.45;101413.13;5056905;28;20305;-73
2023/08/16 05:57:12;;;;;;;7.83;5.90;;;18.00;99.90;;;17.67;91.82;101411.44;5057044;28;20191;-73
2023/08/16 05:59:44;;;;;;;8.97;5.70;;;18.00;99.90;;;17.68;92.84;101415.84;5056958;28;20305;-73
2023/08/16 06:02:17;;;;;;;9.53;5.90;;;18.00;99.90;;;17.70;93.09;101415.66;5056774;28;20255;-73
2023/08/16 06:04:49;;;;;;;9.87;6.37;;;16.30;99.90;;;17.69;92.83;101414.81;5056698;28;20222;-73
2023/08/16 06:07:23;;;;;;;6.60;6.00;;;18.00;99.90;;;17.69;93.00;101404.00;5056677;28;20274;-73
2023/08/16 06:09:55;;;;;;;7.83;5.53;;;18.00;99.90;;;17.76;93.01;101414.06;5056289;28;20601;-72
2023/08/16 06:12:27;;;;;;;8.80;5.73;;;18.10;99.90;;;17.78;92.98;101417.41;5056454;28;20295;-73
2023/08/16 06:14:59;;;;;;;10.13;5.80;;;18.10;99.90;;;17.80;93.04;101415.34;5056575;28;20244;-73
2023/08/16 06:17:32;;;;;;;8.50;5.80;;;18.10;99.90;;;17.80;92.79;101416.19;5056552;28;20286;-73
2023/08/16 06:20:04;;;;;;;7.50;5.77;;;18.20;99.90;;;17.84;93.36;101430.19;5056180;28;20645;-73
2023/08/16 06:22:37;;;;;;;10.57;5.90;;;18.20;99.90;;;17.86;92.97;101430.84;5056325;28;20233;-74
2023/08/16 06:25:10;;;;;;;8.90;5.83;;;18.20;99.90;;;17.87;92.29;101432.53;5056305;28;20238;-73
2023/08/16 06:27:42;;;;;;;9.00;6.70;;;18.20;99.90;;;17.88;93.85;101439.59;5055920;28;20562;-73
2023/08/16 06:30:16;;;;;;;9.57;6.00;;;18.20;99.90;;;17.90;93.37;101432.13;5056230;28;20212;-73
2023/08/16 06:32:50;;;;;;;6.70;6.03;;;18.20;99.90;;;17.91;93.87;101429.22;5056089;28;20244;-73
2023/08/16 06:35:22;;;;;;;7.50;5.80;;;18.20;99.90;;;17.93;93.82;101426.34;5056151;28;20212;-73
2023/08/16 06:37:54;;;;;;;9.07;6.43;;;18.30;99.90;;;17.95;94.01;101424.25;5056198;28;20233;-73
2023/08/16 06:40:26;;;;;;;7.40;6.03;;;18.30;99.90;;;17.98;94.10;101442.88;5054966;28;20206;-73
2023/08/16 06:43:00;;;;;;;10.20;6.13;;;18.30;99.90;;;17.95;93.80;101435.09;5055953;28;20230;-73
2023/08/16 06:45:34;;;;;;;8.10;5.63;;;18.30;99.90;;;17.97;93.93;101449.31;5055989;28;20251;-73
2023/08/16 06:48:09;;;;;;;8.13;6.07;;;18.30;99.90;;;17.98;93.61;101440.16;5055512;28;20236;-73
2023/08/16 06:50:41;;;;;;;10.20;5.77;;;18.40;99.90;;;18.01;93.65;101428.94;5055756;28;20597;-73
2023/08/16 06:53:13;;;;;;;7.97;5.20;;;18.40;99.90;;;18.04;93.62;101437.53;5055631;28;20601;-73
2023/08/16 06:55:45;;;;;;;7.03;5.20;;;18.40;99.90;;;18.08;93.50;101440.69;5055443;28;20641;-73
2023/08/16 06:58:17;;;;;;;10.47;5.60;;;18.40;99.90;;;18.11;93.57;101445.72;5055668;28;20191;-73
2023/08/16 07:00:49;;;;;;;8.43;5.57;;;18.50;99.90;;;18.12;93.34;101444.66;5055852;28;20210;-73
2023/08/16 07:03:23;;;;;;;6.77;5.33;;;18.50;99.90;;;18.13;92.71;101455.31;5055504;28;20230;-73
2023/08/16 07:05:55;;;;;;;8.87;5.90;;;18.50;99.90;;;18.15;92.22;101458.66;5055217;28;20586;-73
2023/08/16 07:08:28;;;;;;;9.30;5.17;;;18.50;99.90;;;18.19;92.40;101464.53;5055506;28;20214;-72
2023/08/16 07:11:00;;;;;;;6.70;4.73;;;18.60;99.90;;;18.17;90.92;101461.19;5055094;28;20190;-72
2023/08/16 07:13:31;;;;;;;8.17;4.50;;;18.50;99.90;;;18.19;89.77;101467.25;5055370;28;20230;-72
2023/08/16 07:16:03;;;;;;;12.00;5.80;;;18.60;99.90;;;18.23;91.06;101465.84;5056175;28;20195;-72
2023/08/16 07:18:36;;;;;;;8.13;4.90;;;18.60;99.90;;;18.23;90.68;101476.69;5055295;28;20240;-72
2023/08/16 07:21:08;;;;;;;9.30;4.70;;;18.60;99.90;;;18.24;90.25;101486.50;5055250;28;20198;-72
2023/08/16 07:23:40;;;;;;;8.13;4.60;;;18.60;99.90;;;18.24;89.07;101483.78;5055106;28;20232;-72
2023/08/16 07:26:12;;;;;;;6.03;4.37;;;18.60;99.90;;;18.26;89.20;101481.72;5055406;28;20271;-72
2023/08/16 07:28:44;;;;;;;6.83;4.07;;;18.60;99.90;;;18.29;89.03;101486.75;5054753;28;20680;-72
2023/08/16 07:31:16;;;;;;;8.40;4.20;;;18.60;99.90;;;18.29;87.49;101483.22;5055103;28;20199;-73
2023/08/16 07:33:49;;;;;;;8.07;4.00;;;18.70;99.90;;;18.34;88.16;101495.16;5055113;28;20237;-73
2023/08/16 07:36:22;;;;;;;8.33;4.30;;;18.70;99.90;;;18.35;87.46;101491.44;5055033;28;20285;-73
2023/08/16 07:38:54;;;;;;;5.93;4.23;;;18.70;99.90;;;18.39;87.02;101495.41;5055079;28;20197;-73
2023/08/16 07:41:25;;;;;;;11.27;4.60;;;18.80;99.90;;;18.42;87.07;101483.34;5055011;28;20244;-73
2023/08/16 07:43:57;;;;;;;6.90;3.57;;;18.80;99.90;;;18.46;87.22;101488.19;5054851;28;20256;-73
2023/08/16 07:46:29;;;;;;;7.70;3.73;;;18.90;99.90;;;18.50;87.32;101478.66;5054609;28;20300;-73
2023/08/16 07:49:04;;;;;;;5.27;3.53;;;18.90;99.90;;;18.53;87.11;101477.44;5054655;28;20264;-73
2023/08/16 07:51:35;;;;;;;7.90;3.37;;;18.90;99.90;;;18.53;84.80;101472.84;5054623;28;20224;-62
2023/08/16 07:54:08;;;;;;;7.40;3.50;;;18.90;99.90;;;18.57;85.45;101479.56;5054605;28;20230;-70
2023/08/16 07:56:40;;;;;;;5.50;3.07;;;19.00;99.90;;;18.64;86.77;101474.19;5054552;28;20197;-71
2023/08/16 07:59:13;;;;;;;7.80;3.20;;;19.00;99.90;;;18.67;85.22;101471.94;5054653;28;20187;-72
2023/08/16 08:01:46;;;;;;;7.50;2.93;;;19.10;99.90;;;18.75;84.15;101476.41;5054444;28;20237;-72
2023/08/16 08:04:19;;;;;;;6.43;3.20;;;19.20;99.90;;;18.80;83.66;101483.94;5054406;28;20226;-72
2023/08/16 08:06:52;;;;;;;4.83;2.90;;;19.20;99.90;;;18.85;84.09;101489.63;5054416;28;20202;-72
2023/08/16 08:09:24;;;;;;;11.20;3.57;;;19.30;99.90;;;18.83;82.92;101488.97;5053980;28;20684;-72
2023/08/16 08:11:56;;;;;;;7.50;3.50;;;19.20;99.90;;;18.88;83.57;101497.34;5054290;28;20285;-72
2023/08/16 08:14:30;;;;;;;6.20;3.30;;;19.20;99.90;;;18.90;83.06;101498.03;5054287;28;20229;-72
2023/08/16 08:17:02;;;;;;;6.00;3.30;;;19.30;99.90;;;18.94;83.71;101494.69;5053953;28;20232;-73
2023/08/16 08:19:35;;;;;;;7.67;3.37;;;19.40;99.90;;;18.99;83.52;101499.53;5053883;28;20222;-73
2023/08/16 08:22:07;;;;;;;5.00;3.23;;;19.40;99.90;;;19.04;83.26;101499.81;5054175;28;20190;-73
2023/08/16 08:24:39;;;;;;;5.10;3.00;;;19.50;99.90;;;19.12;82.89;101495.06;5053951;28;20229;-73
2023/08/16 08:27:11;;;;;;;6.17;3.20;;;19.50;99.90;;;19.17;82.06;101499.91;5054026;28;20300;-74
2023/08/16 08:29:43;;;;;;;8.63;3.57;;;19.60;99.90;;;19.23;82.97;101499.09;5054008;28;20210;-73
2023/08/16 08:32:16;;;;;;;7.00;3.17;;;19.70;99.90;;;19.23;82.14;101497.22;5054289;28;20190;-74
2023/08/16 08:34:50;;;;;;;5.00;3.20;;;19.60;99.90;;;19.27;82.01;101503.09;5054267;28;20225;-73
2023/08/16 08:37:21;;;;;;;5.40;3.60;;;19.70;99.90;;;19.28;81.50;101506.66;5053911;28;20190;-73
2023/08/16 08:39:54;;;;;;;5.20;3.13;;;19.70;99.90;;;19.35;81.10;101511.06;5053934;28;20198;-73
2023/08/16 08:42:27;;;;;;;6.97;3.20;;;19.80;99.90;;;19.50;81.29;101514.56;5054548;28;20285;-73
2023/08/16 08:45:03;;;;;;;5.60;3.00;;;19.90;99.90;;;19.54;79.67;101509.56;5053855;28;20281;-72
2023/08/16 08:47:35;;;;;;;5.20;2.80;;;20.00;99.90;;;19.56;78.42;101516.47;5053643;28;20221;-73
2023/08/16 08:50:10;;;;;;;5.40;2.83;;;20.00;99.90;;;19.63;79.44;101516.50;5053500;28;20214;-73
2023/08/16 08:52:48;;;;;;;6.13;3.23;;;20.10;99.90;;;19.73;78.62;101515.09;5053825;28;20264;-74
2023/08/16 08:55:20;;;;;;;8.50;3.73;;;20.20;99.90;;;19.77;77.22;101517.41;5053383;28;20678;-73
2023/08/16 08:57:59;;;;;;;4.97;3.10;;;20.20;99.90;;;19.87;77.73;101515.16;5053685;28;20194;-73
2023/08/16 09:00:37;;;;;;;4.17;2.60;;;20.30;99.90;;;19.93;79.73;101520.63;5053747;28;20190;-72
2023/08/16 09:03:13;;;;;;;6.67;3.13;;;20.40;99.90;;;20.03;75.25;101520.25;5053518;28;20600;-72
2023/08/16 09:05:48;;;;;;;7.60;3.00;;;20.50;99.90;;;20.12;78.09;101525.31;5053602;28;20226;-73
2023/08/16 09:08:21;;;;;;;5.07;2.70;;;20.50;99.90;;;20.23;76.26;101526.59;5053610;28;20279;-73
2023/08/16 09:10:54;;;;;;;6.23;2.97;;;20.70;99.90;;;20.24;76.54;101517.38;5053586;28;20216;-73
2023/08/16 09:13:27;;;;;;;5.60;2.73;;;20.70;99.90;;;20.36;77.51;101510.34;5053575;28;20236;-73
2023/08/16 09:16:00;;;;;;;5.70;2.97;;;20.80;99.90;;;20.46;74.54;101510.78;5053476;28;20221;-72
2023/08/16 09:18:32;;;;;;;7.00;2.93;;;20.90;99.90;;;20.60;75.93;101509.78;5053198;28;20194;-72
2023/08/16 09:21:07;;;;;;;6.80;3.13;;;21.00;99.90;;;20.63;75.60;101517.50;5053358;28;20285;-72
2023/08/16 09:23:38;;;;;;;5.97;2.83;;;21.10;99.90;;;20.69;73.42;101511.25;5053265;28;20233;-72
2023/08/16 09:26:20;;;;;;;4.00;2.73;;;21.10;99.90;;;20.85;75.12;101503.72;5053353;28;20237;-72
2023/08/16 09:28:58;;;;;;;4.37;2.50;;;21.20;99.90;;;20.85;73.85;101496.41;5053267;28;20194;-72
2023/08/16 09:31:38;;;;;;;3.90;2.67;;;21.30;99.90;;;20.96;75.59;101505.81;5053286;28;20233;-71
2023/08/16 09:34:13;;;;;;;5.43;2.80;;;21.40;99.90;;;21.07;76.05;101502.44;5053218;28;20226;-71
2023/08/16 09:36:52;;;;;;;6.87;2.83;;;21.60;99.90;;;21.14;72.63;101497.88;5052907;28;20712;-72
2023/08/16 09:39:30;;;;;;;4.53;2.90;;;21.70;99.90;;;21.34;73.17;101492.38;5053197;28;20281;-72
2023/08/16 09:42:08;;;;;;;7.63;2.97;;;21.80;99.90;;;21.38;72.96;101499.94;5052965;28;20209;-72
2023/08/16 09:44:46;;;;;;;5.97;3.10;;;21.90;99.90;;;21.44;72.45;101500.97;5052965;28;20288;-70
2023/08/16 09:47:18;;;;;;;6.63;3.30;;;21.90;99.90;;;21.53;70.07;101492.34;5052750;28;20638;-70
2023/08/16 09:49:52;;;;;;;4.87;2.93;;;22.00;99.90;;;21.56;71.66;101491.94;5052933;28;20301;-70
2023/08/16 09:52:25;;;;;;;5.70;2.80;;;22.00;99.90;;;21.57;70.28;101499.06;5052560;28;20638;-71
2023/08/16 09:54:58;;;;;;;8.17;3.80;;;22.00;99.90;;;21.59;72.51;101502.41;5052692;28;20195;-71
2023/08/16 09:57:30;;;;;;;5.67;2.97;;;22.00;99.90;;;21.68;70.91;101502.97;5052564;28;20640;-71
2023/08/16 10:00:04;;;;;;;4.13;2.93;;;22.10;99.90;;;21.73;72.50;101492.28;5053455;28;20191;-71
2023/08/16 10:02:36;;;;;;;5.67;2.90;;;22.20;99.90;;;21.81;71.12;101491.22;5052814;28;20218;-71
2023/08/16 10:05:13;;;;;;;3.67;2.60;;;22.30;99.90;;;21.81;70.66;101493.94;5052565;28;20671;-71
2023/08/16 10:08:04;;;;;;;6.30;2.90;;;22.20;99.90;;;21.81;72.75;101493.94;5052719;28;20190;-71
2023/08/16 10:10:37;;;;;;;4.60;2.93;;;22.20;99.90;;;21.78;69.50;101494.38;5053225;28;20297;-71
2023/08/16 10:13:10;;;;;;;6.00;3.13;;;22.20;99.90;;;21.81;72.57;101491.22;5052716;28;20257;-71
2023/08/16 10:15:46;;;;;;;5.80;3.20;;;22.20;99.90;;;21.84;72.94;101482.59;5055424;28;20727;-71
2023/08/16 10:18:22;;;;;;;5.80;3.20;;;22.20;99.90;;;21.87;69.68;101477.56;5056399;28;20273;-71
2023/08/16 10:20:59;;;;;;;4.77;3.20;;;22.30;99.90;;;22.05;70.54;101479.59;5056064;28;20183;-71
2023/08/16 10:23:35;;;;;;;4.80;2.73;;;22.40;99.90;;;22.16;71.36;101465.25;5056216;28;20287;-71
2023/08/16 10:26:13;;;;;;;4.90;2.70;;;22.60;99.90;;;22.28;69.76;101470.88;5055919;28;20643;-71
2023/08/16 10:28:52;;;;;;;6.60;2.73;;;22.70;99.90;;;22.38;69.49;101466.59;5055904;28;20748;-71
2023/08/16 10:31:31;;;;;;;3.20;2.70;;;22.80;99.90;;;22.48;69.63;101466.94;5056094;28;20209;-71
2023/08/16 10:34:07;;;;;;;4.83;2.50;;;22.90;99.90;;;22.62;70.47;101467.69;5055716;28;20711;-71